Time;durP1;ratioP1;P1;durP2;ratioP2;P2;SDS_P1;SDS_P2;PMS_P1;PMS_P2;Temp;Humidity;BMP_temperature;BMP_pressure;BME280_temperature;BME280_humidity;BME280_pressure;Samples;Min_cycle;Max_cycle;Signal;HPM_P1;HPM_P2
2021/12/07 00:01:06;;;;;;;3.83;3.53;;;5.20;99.90;;;;;;6133127;23;20904;-86
2021/12/07 00:03:35;;;;;;;4.47;4.07;;;5.20;99.90;;;;;;6132577;23;20727;-87
2021/12/07 00:06:55;;;;;;;5.50;4.80;;;5.20;99.90;;;;;;6136457;23;20398;-85
2021/12/07 00:09:43;;;;;;;4.20;3.80;;;5.30;99.90;;;;;;6105958;23;20730;-88
2021/12/07 00:12:14;;;;;;;4.20;3.60;;;5.30;99.90;;;;;;6134080;23;20415;-86
2021/12/07 00:15:01;;;;;;;3.60;3.30;;;5.40;99.90;;;;;;6135434;23;20451;-89
2021/12/07 00:17:29;;;;;;;4.57;3.53;;;5.60;99.90;;;;;;6125409;23;20416;-88
2021/12/07 00:19:57;;;;;;;3.27;3.00;;;5.60;99.90;;;;;;6127314;23;20428;-87
2021/12/07 00:22:27;;;;;;;3.67;3.20;;;5.60;99.90;;;;;;6130518;23;20477;-87
2021/12/07 00:25:05;;;;;;;2.57;2.37;;;5.50;99.90;;;;;;6130220;23;20450;-89
2021/12/07 00:28:02;;;;;;;2.70;2.50;;;5.40;99.90;;;;;;6139113;23;20446;-87
2021/12/07 00:30:42;;;;;;;2.10;2.00;;;5.20;99.90;;;;;;6137880;23;20418;-85
2021/12/07 00:35:55;;;;;;;1.57;1.33;;;5.20;99.90;;;;;;6138974;23;20413;-88
2021/12/07 00:38:26;;;;;;;2.30;1.63;;;5.10;99.90;;;;;;6136430;23;20426;-87
2021/12/07 00:40:58;;;;;;;1.40;1.30;;;5.10;99.90;;;;;;6134515;23;20500;-85
2021/12/07 00:43:26;;;;;;;1.50;1.40;;;5.00;99.90;;;;;;6132081;23;20458;-85
2021/12/07 00:45:57;;;;;;;1.50;1.40;;;5.10;99.90;;;;;;6128673;23;20479;-85
2021/12/07 00:48:25;;;;;;;1.50;1.40;;;5.00;99.90;;;;;;6137517;23;20418;-87
2021/12/07 00:50:54;;;;;;;1.17;1.03;;;5.00;99.90;;;;;;6133544;23;20412;-88
2021/12/07 00:53:22;;;;;;;1.27;1.17;;;5.00;99.90;;;;;;6134215;23;20446;-87
2021/12/07 00:55:51;;;;;;;1.40;1.30;;;4.90;99.90;;;;;;6134588;23;20996;-86
2021/12/07 00:58:23;;;;;;;1.53;1.40;;;4.80;99.90;;;;;;6132999;23;20990;-88
2021/12/07 01:00:59;;;;;;;1.73;1.63;;;4.80;99.90;;;;;;6140618;23;20406;-88
2021/12/07 01:03:28;;;;;;;1.60;1.50;;;4.80;99.90;;;;;;6145843;23;20432;-90
2021/12/07 01:06:19;;;;;;;2.40;2.20;;;4.80;99.90;;;;;;6138030;23;20426;-85
2021/12/07 01:25:10;;;;;;;1.73;1.63;;;5.10;99.90;;;;;;6122042;23;20503;-87
2021/12/07 01:27:40;;;;;;;2.07;1.97;;;5.10;99.90;;;;;;6118694;23;20605;-85
2021/12/07 01:30:18;;;;;;;2.20;2.10;;;5.20;99.90;;;;;;6136033;23;20480;-86
2021/12/07 01:35:46;;;;;;;2.90;2.70;;;5.20;99.90;;;;;;6131800;23;20508;-86
2021/12/07 01:57:52;;;;;;;6.37;5.77;;;5.70;99.90;;;;;;6130061;23;20817;-88
2021/12/07 01:59:49;;;;;;;9.57;5.40;;;5.70;99.90;;;;;;6133352;23;20842;-85
2021/12/07 02:02:19;;;;;;;8.47;5.83;;;5.70;99.90;;;;;;6131922;23;20485;-87
2021/12/07 02:04:47;;;;;;;8.23;5.40;;;5.70;99.90;;;;;;6132226;23;20448;-89
2021/12/07 02:07:14;;;;;;;10.63;5.30;;;5.80;99.90;;;;;;6135593;23;20410;-86
2021/12/07 02:09:45;;;;;;;8.33;5.77;;;5.80;99.90;;;;;;6139378;23;20488;-89
2021/12/07 02:12:13;;;;;;;4.93;4.50;;;5.80;99.90;;;;;;6137095;23;20437;-88
2021/12/07 02:14:43;;;;;;;7.40;5.70;;;5.80;99.90;;;;;;6127321;23;20459;-88
2021/12/07 02:17:15;;;;;;;6.83;4.70;;;5.80;99.90;;;;;;6123241;23;21285;-89
2021/12/07 02:19:42;;;;;;;7.47;4.50;;;5.80;99.90;;;;;;6119834;23;20413;-89
2021/12/07 02:22:10;;;;;;;4.40;3.67;;;5.90;99.90;;;;;;6122335;23;20508;-89
2021/12/07 02:24:38;;;;;;;8.40;4.60;;;5.90;99.90;;;;;;6123651;23;20476;-87
2021/12/07 02:27:05;;;;;;;4.57;3.53;;;5.90;99.90;;;;;;6127690;23;20421;-88
2021/12/07 02:29:32;;;;;;;4.97;3.53;;;5.90;99.90;;;;;;6129307;23;20425;-89
2021/12/07 02:32:01;;;;;;;4.10;3.70;;;6.00;99.90;;;;;;6128385;23;20768;-87
2021/12/07 02:34:37;;;;;;;6.43;3.80;;;6.00;99.90;;;;;;6123843;23;20903;-87
2021/12/07 02:37:04;;;;;;;8.13;4.20;;;6.00;99.90;;;;;;6126989;23;20428;-87
2021/12/07 02:39:34;;;;;;;7.40;4.40;;;6.00;99.90;;;;;;6123888;23;20423;-89
2021/12/07 02:42:02;;;;;;;7.33;4.10;;;6.00;99.90;;;;;;6123773;23;20441;-87
2021/12/07 02:44:33;;;;;;;6.83;5.10;;;6.10;99.90;;;;;;6122084;23;20439;-86
2021/12/07 02:47:01;;;;;;;8.17;4.77;;;6.10;99.90;;;;;;6121806;23;20565;-88
2021/12/07 02:49:30;;;;;;;10.10;4.63;;;6.10;99.90;;;;;;6121172;23;20427;-89
2021/12/07 02:51:58;;;;;;;7.97;4.60;;;6.10;99.90;;;;;;6119598;23;20421;-89
2021/12/07 02:54:24;;;;;;;8.93;4.77;;;6.10;99.90;;;;;;6124367;23;20591;-92
2021/12/07 02:56:51;;;;;;;12.50;5.50;;;6.20;99.90;;;;;;6132833;23;20419;-90
2021/12/07 02:59:22;;;;;;;9.93;4.60;;;6.20;99.90;;;;;;6127245;23;20419;-89
2021/12/07 03:01:59;;;;;;;9.67;4.60;;;6.20;99.90;;;;;;6127800;23;20422;-88
2021/12/07 03:04:32;;;;;;;10.50;4.43;;;6.30;99.90;;;;;;6125826;23;20447;-87
2021/12/07 03:26:28;;;;;;;10.73;4.37;;;6.40;99.90;;;;;;6127901;23;20416;-87
2021/12/07 03:29:00;;;;;;;9.03;4.20;;;6.40;99.90;;;;;;6123497;23;20416;-86
2021/12/07 03:31:29;;;;;;;9.80;4.50;;;6.40;99.90;;;;;;6124950;23;20447;-88
2021/12/07 03:33:58;;;;;;;6.13;3.43;;;6.40;99.90;;;;;;6126288;23;20443;-88
2021/12/07 03:36:27;;;;;;;12.17;4.37;;;6.40;99.90;;;;;;6131332;23;20495;-86
2021/12/07 03:38:54;;;;;;;10.83;4.80;;;6.40;99.90;;;;;;6126038;23;20438;-90
2021/12/07 03:41:21;;;;;;;9.50;4.97;;;6.40;99.90;;;;;;6131856;23;20481;-90
2021/12/07 03:43:49;;;;;;;8.37;3.93;;;6.40;99.90;;;;;;6122268;23;20428;-89
2021/12/07 03:46:17;;;;;;;5.97;3.40;;;6.40;99.90;;;;;;6124397;23;20488;-89
2021/12/07 03:48:47;;;;;;;6.50;3.93;;;6.40;99.90;;;;;;6121897;23;20808;-89
2021/12/07 03:51:18;;;;;;;12.47;3.47;;;6.40;99.90;;;;;;6126513;23;20875;-90
2021/12/07 03:53:45;;;;;;;9.10;3.67;;;6.40;99.90;;;;;;6130567;23;20509;-90
2021/12/07 03:56:12;;;;;;;7.10;3.80;;;6.40;99.90;;;;;;6131828;23;20451;-89
2021/12/07 03:58:39;;;;;;;9.33;4.00;;;6.40;99.90;;;;;;6130246;23;20416;-90
2021/12/07 04:01:10;;;;;;;11.13;4.63;;;6.40;99.90;;;;;;6130600;23;20422;-91
2021/12/07 04:03:38;;;;;;;11.27;3.87;;;6.40;99.90;;;;;;6129450;23;20446;-89
2021/12/07 04:06:06;;;;;;;15.43;3.73;;;6.40;99.90;;;;;;6129237;23;20454;-89
2021/12/07 04:08:37;;;;;;;9.10;3.43;;;6.40;99.90;;;;;;6129409;23;20510;-89
2021/12/07 04:11:04;;;;;;;10.93;4.03;;;6.40;99.90;;;;;;6128488;23;20513;-89
2021/12/07 04:13:34;;;;;;;8.57;4.10;;;6.40;99.90;;;;;;6128057;23;20464;-89
2021/12/07 04:16:11;;;;;;;16.60;4.17;;;6.40;99.90;;;;;;6128144;23;20473;-90
2021/12/07 04:18:38;;;;;;;7.10;3.00;;;6.40;99.90;;;;;;6128188;23;20421;-87
2021/12/07 04:21:08;;;;;;;9.50;3.60;;;6.40;99.90;;;;;;6127492;23;20454;-88
2021/12/07 04:23:36;;;;;;;6.90;3.77;;;6.40;99.90;;;;;;6127301;23;20512;-88
2021/12/07 04:26:07;;;;;;;13.73;3.80;;;6.30;99.90;;;;;;6128678;23;20448;-90
2021/12/07 04:28:55;;;;;;;8.30;3.73;;;6.40;99.90;;;;;;6122305;23;20515;-85
2021/12/07 04:31:39;;;;;;;9.30;3.77;;;6.40;99.90;;;;;;6128834;23;20433;-88
2021/12/07 04:34:11;;;;;;;7.30;3.93;;;6.40;99.90;;;;;;6112419;23;20504;-89
2021/12/07 04:36:38;;;;;;;7.07;3.50;;;6.40;99.90;;;;;;6136059;23;20451;-90
2021/12/07 04:39:05;;;;;;;11.90;4.37;;;6.40;99.90;;;;;;6134459;23;20429;-88
2021/12/07 04:41:33;;;;;;;9.93;5.23;;;6.40;99.90;;;;;;6125096;23;20455;-90
2021/12/07 04:44:02;;;;;;;15.77;4.80;;;6.40;99.90;;;;;;6117538;23;20527;-88
2021/12/07 04:46:37;;;;;;;8.80;4.07;;;6.40;99.90;;;;;;6119983;23;20510;-91
2021/12/07 04:57:42;;;;;;;7.80;4.37;;;6.40;99.90;;;;;;6125302;23;20403;-88
2021/12/07 05:00:13;;;;;;;8.83;4.50;;;6.40;99.90;;;;;;6123995;23;20413;-89
2021/12/07 05:02:43;;;;;;;11.20;4.30;;;6.40;99.90;;;;;;6122762;23;20403;-87
2021/12/07 05:05:14;;;;;;;8.97;4.67;;;6.40;99.90;;;;;;6122633;23;20443;-88
2021/12/07 05:07:47;;;;;;;10.60;5.03;;;6.30;99.90;;;;;;6121438;23;20419;-90
2021/12/07 05:12:58;;;;;;;13.00;5.23;;;6.30;99.90;;;;;;6131505;23;20392;-91
2021/12/07 05:40:08;;;;;;;8.17;4.90;;;6.20;99.90;;;;;;6040306;23;20439;-89
2021/12/07 05:42:40;;;;;;;9.40;5.20;;;6.20;99.90;;;;;;6090367;23;20417;-89
2021/12/07 05:45:11;;;;;;;12.30;5.40;;;6.20;99.90;;;;;;6133392;23;20441;-88
2021/12/07 05:47:38;;;;;;;10.73;5.27;;;6.20;99.90;;;;;;6129224;23;20498;-89
2021/12/07 05:50:08;;;;;;;16.23;5.13;;;6.20;99.90;;;;;;6129591;23;20413;-88
2021/12/07 05:52:38;;;;;;;8.17;4.57;;;6.20;99.90;;;;;;6128516;23;20461;-89
2021/12/07 05:55:07;;;;;;;12.50;4.53;;;6.10;99.90;;;;;;6133570;23;20455;-88
2021/12/07 05:57:36;;;;;;;9.67;4.70;;;6.20;99.90;;;;;;6129725;23;20422;-88
2021/12/07 06:00:12;;;;;;;10.83;4.40;;;6.10;99.90;;;;;;6127636;23;20430;-88
2021/12/07 06:02:42;;;;;;;12.50;5.53;;;6.10;99.90;;;;;;6104451;23;20468;-89
2021/12/07 06:05:10;;;;;;;8.40;4.47;;;6.10;99.90;;;;;;6130438;23;20470;-89
2021/12/07 06:08:03;;;;;;;6.57;4.13;;;6.10;99.90;;;;;;6128103;23;20402;-89
2021/12/07 06:10:34;;;;;;;9.43;3.60;;;6.10;99.90;;;;;;6127770;23;20404;-89
2021/12/07 06:13:15;;;;;;;11.20;3.77;;;6.10;99.90;;;;;;6128480;23;20854;-88
2021/12/07 06:15:46;;;;;;;11.90;4.97;;;6.10;99.90;;;;;;6122976;23;20591;-89
2021/12/07 06:18:21;;;;;;;11.63;4.70;;;6.10;99.90;;;;;;6123480;23;20419;-87
2021/12/07 06:21:36;;;;;;;6.20;4.73;;;6.10;99.90;;;;;;6125354;23;20417;-90
2021/12/07 06:24:09;;;;;;;12.80;4.10;;;6.10;99.90;;;;;;6124394;23;20437;-90
2021/12/07 06:26:48;;;;;;;7.50;4.23;;;6.10;99.90;;;;;;6129219;23;20865;-88
2021/12/07 06:29:28;;;;;;;4.83;3.33;;;6.10;99.90;;;;;;6129384;23;20490;-88
2021/12/07 06:32:49;;;;;;;6.90;4.17;;;6.10;99.90;;;;;;6130335;23;20430;-88
2021/12/07 06:35:32;;;;;;;7.90;3.67;;;6.10;99.90;;;;;;6129007;23;20449;-89
2021/12/07 06:38:39;;;;;;;14.27;4.67;;;6.10;99.90;;;;;;6127586;23;20979;-88
2021/12/07 06:41:52;;;;;;;7.43;4.00;;;6.00;99.90;;;;;;6126512;23;20420;-89
2021/12/07 06:44:55;;;;;;;8.73;3.80;;;6.00;99.90;;;;;;6128932;23;20436;-86
2021/12/07 06:47:49;;;;;;;6.60;2.73;;;6.10;99.90;;;;;;6129623;23;20419;-89
2021/12/07 06:50:40;;;;;;;7.63;3.23;;;6.10;99.90;;;;;;6128446;23;20491;-88
2021/12/07 06:53:17;;;;;;;11.30;3.70;;;6.00;99.90;;;;;;6132172;23;20940;-91
2021/12/07 06:56:02;;;;;;;12.83;4.80;;;6.00;99.90;;;;;;6133735;23;20451;-89
2021/12/07 06:58:49;;;;;;;6.60;3.90;;;6.00;99.90;;;;;;6136138;23;20419;-91
2021/12/07 07:01:37;;;;;;;9.93;3.37;;;6.00;99.90;;;;;;6135407;23;20425;-89
2021/12/07 07:04:14;;;;;;;6.80;4.10;;;6.00;99.90;;;;;;6132637;23;20447;-88
2021/12/07 07:06:55;;;;;;;8.10;3.40;;;5.90;99.90;;;;;;6129313;23;20400;-88
2021/12/07 07:09:57;;;;;;;;;;;;;;;;;;;;;
2021/12/07 07:12:51;;;;;;;10.43;3.77;;;5.90;99.90;;;;;;6131557;23;20375;-88
2021/12/07 07:15:42;;;;;;;12.70;3.50;;;5.90;99.90;;;;;;6018900;23;20453;-88
2021/12/07 07:18:44;;;;;;;9.53;3.10;;;5.90;99.90;;;;;;6015697;23;20455;-87
2021/12/07 07:21:24;;;;;;;9.70;3.10;;;5.90;99.90;;;;;;6010049;23;20457;-89
2021/12/07 07:34:50;;;;;;;16.63;3.03;;;5.90;99.90;;;;;;5941669;24;20441;-91
2021/12/07 07:38:23;;;;;;;5.10;2.80;;;5.90;99.90;;;;;;5923697;24;20480;-89
2021/12/07 07:41:24;;;;;;;10.70;4.40;;;6.00;99.90;;;;;;5927154;24;20418;-89
2021/12/07 07:44:09;;;;;;;10.37;3.47;;;6.00;99.90;;;;;;5893431;24;20465;-89
2021/12/07 07:50:36;;;;;;;11.63;5.33;;;6.00;99.90;;;;;;5941354;24;20921;-88
2021/12/07 07:53:04;;;;;;;12.60;3.50;;;6.00;99.90;;;;;;6002120;23;20536;-90
2021/12/07 07:55:45;;;;;;;8.23;3.67;;;6.00;99.90;;;;;;6016424;23;20476;-88
2021/12/07 07:58:28;;;;;;;12.37;3.67;;;6.10;99.90;;;;;;6027934;23;20403;-89
2021/12/07 08:01:12;;;;;;;6.70;3.07;;;6.10;99.90;;;;;;6021202;23;21068;-89
2021/12/07 08:03:48;;;;;;;7.70;4.10;;;6.10;99.90;;;;;;6019814;23;20856;-89
2021/12/07 08:06:27;;;;;;;6.00;3.80;;;6.10;99.90;;;;;;6104578;23;20427;-92
2021/12/07 08:09:05;;;;;;;6.93;3.50;;;6.30;99.90;;;;;;6133963;23;20412;-87
2021/12/07 08:11:43;;;;;;;9.23;3.57;;;6.50;99.90;;;;;;6129482;23;20438;-90
2021/12/07 08:14:18;;;;;;;11.63;3.83;;;6.50;99.90;;;;;;6123623;23;20436;-88
2021/12/07 08:16:58;;;;;;;15.57;4.47;;;6.40;99.90;;;;;;6117667;23;20449;-89
2021/12/07 08:19:45;;;;;;;7.67;3.30;;;6.30;99.90;;;;;;6115214;23;20401;-90
2021/12/07 08:22:18;;;;;;;10.83;4.07;;;6.30;99.90;;;;;;6119432;23;20478;-91
2021/12/07 08:24:54;;;;;;;7.87;3.87;;;6.70;99.90;;;;;;6121046;23;20446;-88
2021/12/07 08:27:28;;;;;;;9.63;4.60;;;6.80;99.90;;;;;;6125899;23;20530;-88
2021/12/07 08:30:16;;;;;;;6.80;3.60;;;6.90;99.90;;;;;;6126474;23;20412;-88
2021/12/07 08:32:47;;;;;;;9.60;4.77;;;6.70;99.90;;;;;;6128623;23;20426;-89
2021/12/07 08:35:26;;;;;;;11.73;3.97;;;6.80;99.90;;;;;;6126364;23;20918;-86
2021/12/07 08:37:55;;;;;;;11.87;4.70;;;6.70;99.90;;;;;;6123156;23;20419;-87
2021/12/07 08:40:30;;;;;;;12.37;3.80;;;6.60;99.90;;;;;;6123190;23;20420;-86
2021/12/07 08:43:17;;;;;;;12.13;4.93;;;6.50;99.90;;;;;;6121724;23;20414;-88
2021/12/07 08:45:51;;;;;;;7.93;3.43;;;6.50;99.90;;;;;;6122972;23;20426;-87
2021/12/07 08:48:24;;;;;;;8.97;3.50;;;6.40;99.90;;;;;;6122392;23;20419;-88
2021/12/07 08:50:59;;;;;;;8.07;3.27;;;6.50;99.90;;;;;;6120916;23;20432;-86
2021/12/07 08:53:58;;;;;;;5.90;2.83;;;6.50;99.90;;;;;;6120637;23;20479;-86
2021/12/07 09:02:37;;;;;;;6.90;3.50;;;7.20;99.90;;;;;;6092372;23;20478;-86
2021/12/07 09:05:09;;;;;;;11.93;4.27;;;6.90;99.90;;;;;;6111452;23;20451;-88
2021/12/07 09:07:46;;;;;;;8.43;3.37;;;7.00;99.90;;;;;;6121875;23;20975;-88
2021/12/07 09:10:15;;;;;;;7.30;3.03;;;6.70;99.90;;;;;;6128199;23;20401;-88
2021/12/07 09:12:46;;;;;;;8.17;3.00;;;6.80;99.90;;;;;;6123275;23;21007;-87
2021/12/07 09:15:14;;;;;;;9.70;2.83;;;7.00;99.90;;;;;;6118296;23;20443;-88
2021/12/07 09:17:52;;;;;;;7.97;3.10;;;7.30;99.90;;;;;;6122528;23;20507;-85
2021/12/07 09:20:37;;;;;;;7.13;3.50;;;7.30;99.90;;;;;;6124223;23;20453;-86
2021/12/07 09:23:13;;;;;;;8.40;4.20;;;7.40;99.90;;;;;;6119016;23;20410;-86
2021/12/07 09:25:40;;;;;;;7.57;3.03;;;7.30;99.90;;;;;;6121685;23;20544;-86
2021/12/07 09:28:08;;;;;;;8.53;4.20;;;7.60;99.90;;;;;;6122010;23;20428;-84
2021/12/07 09:30:35;;;;;;;8.10;3.20;;;7.80;99.90;;;;;;6121353;23;20729;-87
2021/12/07 09:33:02;;;;;;;8.87;4.57;;;7.80;99.90;;;;;;6115344;23;20431;-88
2021/12/07 09:35:30;;;;;;;10.80;4.37;;;7.80;99.90;;;;;;6119157;23;20499;-87
2021/12/07 09:38:03;;;;;;;10.07;4.67;;;9.10;99.90;;;;;;6122730;23;20483;-87
2021/12/07 09:40:30;;;;;;;10.27;4.13;;;9.90;98.50;;;;;;6120257;23;20430;-87
2021/12/07 09:43:07;;;;;;;6.90;4.80;;;10.10;97.00;;;;;;6122483;23;20429;-86
2021/12/07 09:45:34;;;;;;;9.83;3.50;;;10.20;97.00;;;;;;6122576;23;20408;-87
2021/12/07 09:48:08;;;;;;;8.17;4.50;;;10.40;96.50;;;;;;6123660;23;20420;-87
2021/12/07 09:50:45;;;;;;;10.40;4.20;;;10.60;95.90;;;;;;6124251;23;20394;-86
2021/12/07 09:53:15;;;;;;;9.13;3.90;;;10.70;95.60;;;;;;6123890;23;20542;-87
2021/12/07 09:55:46;;;;;;;11.17;4.90;;;10.20;95.10;;;;;;6125726;23;20443;-86
2021/12/07 09:58:13;;;;;;;8.03;3.53;;;9.40;96.40;;;;;;6119274;23;20423;-87
2021/12/07 10:00:41;;;;;;;8.80;4.40;;;8.90;98.00;;;;;;6114900;23;20413;-88
2021/12/07 10:03:08;;;;;;;7.50;3.10;;;8.50;98.90;;;;;;6114032;23;20460;-87
2021/12/07 10:05:40;;;;;;;8.60;3.57;;;8.20;99.90;;;;;;6113040;23;20420;-87
2021/12/07 10:08:08;;;;;;;5.63;3.27;;;8.60;99.90;;;;;;6115609;23;20407;-88
2021/12/07 10:10:39;;;;;;;7.97;3.97;;;8.80;99.20;;;;;;6125092;23;20749;-88
2021/12/07 10:13:08;;;;;;;10.37;3.80;;;8.80;99.00;;;;;;6124146;23;20415;-88
2021/12/07 10:15:37;;;;;;;10.40;3.60;;;8.80;99.10;;;;;;6123316;23;20424;-89
2021/12/07 10:18:09;;;;;;;10.63;4.83;;;8.60;99.20;;;;;;6122024;23;20443;-88
2021/12/07 10:20:59;;;;;;;10.27;3.90;;;8.60;99.60;;;;;;6122538;23;20467;-88
2021/12/07 10:23:33;;;;;;;15.03;4.23;;;8.60;99.70;;;;;;6123324;23;21215;-88
2021/12/07 10:26:16;;;;;;;11.43;3.60;;;8.40;99.90;;;;;;6126542;23;20696;-88
2021/12/07 10:28:45;;;;;;;8.60;3.37;;;8.30;99.90;;;;;;6122133;23;20400;-87
2021/12/07 10:31:23;;;;;;;5.70;3.30;;;8.60;99.90;;;;;;6120897;23;20427;-86
2021/12/07 10:34:00;;;;;;;6.73;3.70;;;8.60;99.90;;;;;;6122609;23;20805;-86
2021/12/07 10:36:35;;;;;;;7.70;3.73;;;8.80;99.20;;;;;;6122375;23;20449;-88
2021/12/07 10:39:13;;;;;;;12.10;3.53;;;8.80;99.00;;;;;;6121160;23;20517;-89
2021/12/07 10:42:11;;;;;;;10.57;3.40;;;8.80;99.30;;;;;;6124678;23;20748;-88
2021/12/07 10:45:00;;;;;;;7.80;3.07;;;8.70;98.90;;;;;;6123221;23;20442;-88
2021/12/07 10:47:28;;;;;;;7.33;3.40;;;8.70;99.40;;;;;;6126749;23;20497;-88
2021/12/07 10:49:58;;;;;;;11.77;3.57;;;8.70;99.40;;;;;;6134728;23;20424;-88
2021/12/07 10:52:33;;;;;;;8.27;4.00;;;8.70;99.80;;;;;;6136474;23;20414;-88
2021/12/07 10:55:15;;;;;;;8.63;4.07;;;8.90;99.40;;;;;;6136343;23;20428;-87
2021/12/07 10:58:01;;;;;;;7.03;2.53;;;9.30;97.70;;;;;;6137466;23;20429;-87
2021/12/07 11:00:34;;;;;;;6.37;2.60;;;9.00;97.00;;;;;;6129637;23;20439;-87
2021/12/07 11:03:20;;;;;;;7.67;2.47;;;8.80;97.50;;;;;;6115746;23;20423;-88
2021/12/07 11:05:54;;;;;;;5.27;2.63;;;8.40;97.70;;;;;;6115192;23;20409;-86
2021/12/07 11:08:26;;;;;;;6.70;2.40;;;8.40;97.10;;;;;;6115002;23;20423;-87
2021/12/07 11:10:54;;;;;;;3.70;1.70;;;8.30;97.30;;;;;;6122613;23;20503;-87
2021/12/07 11:13:34;;;;;;;6.13;1.93;;;8.80;96.50;;;;;;6124875;23;20450;-88
2021/12/07 11:16:06;;;;;;;7.30;2.20;;;8.60;95.70;;;;;;6121592;23;20442;-88
2021/12/07 11:29:40;;;;;;;5.37;2.03;;;8.90;94.60;;;;;;6144704;23;20484;-86
2021/12/07 11:29:49;;;;;;;2.17;1.87;;;8.60;94.70;;;;;;6066042;23;20402;-87
2021/12/07 11:33:02;;;;;;;4.47;2.27;;;8.50;95.00;;;;;;6064590;23;20399;-89
2021/12/07 11:35:43;;;;;;;5.87;2.37;;;8.50;95.10;;;;;;6102010;23;20393;-87
2021/12/07 11:38:56;;;;;;;4.07;1.87;;;8.70;94.70;;;;;;6102293;23;20448;-86
2021/12/07 11:41:51;;;;;;;3.03;1.60;;;8.70;94.10;;;;;;6127384;23;20412;-86
2021/12/07 11:45:21;;;;;;;2.80;1.63;;;8.60;94.20;;;;;;6125876;23;20466;-88
2021/12/07 11:47:55;;;;;;;5.43;2.23;;;8.60;94.00;;;;;;6100752;23;20415;-88
2021/12/07 11:50:40;;;;;;;10.43;2.47;;;8.60;94.50;;;;;;6101146;23;20421;-87
2021/12/07 11:55:47;;;;;;;8.17;1.83;;;8.60;94.30;;;;;;6161592;23;20442;-85
2021/12/07 11:58:16;;;;;;;6.33;1.93;;;8.50;93.80;;;;;;6132854;23;20500;-87
2021/12/07 12:01:08;;;;;;;5.03;2.00;;;8.50;93.80;;;;;;6126599;23;20507;-87
2021/12/07 12:03:44;;;;;;;3.20;1.90;;;8.40;94.10;;;;;;6131433;23;20438;-86
2021/12/07 12:06:21;;;;;;;8.43;3.43;;;8.30;94.30;;;;;;6127587;23;21236;-87
2021/12/07 12:08:59;;;;;;;2.40;1.63;;;8.40;94.70;;;;;;6156614;23;20424;-86
2021/12/07 12:11:50;;;;;;;5.00;1.73;;;8.30;94.50;;;;;;6133090;23;20417;-86
2021/12/07 12:15:17;;;;;;;5.13;2.30;;;8.40;94.60;;;;;;6131825;23;21014;-84
2021/12/07 12:18:24;;;;;;;4.47;1.97;;;8.40;93.90;;;;;;6131343;23;20457;-85
2021/12/07 12:21:05;;;;;;;6.03;2.10;;;8.40;93.40;;;;;;6131962;23;20458;-88
2021/12/07 12:23:52;;;;;;;8.97;1.93;;;8.50;93.10;;;;;;6135112;23;20762;-88
2021/12/07 12:26:26;;;;;;;3.03;1.40;;;8.30;93.00;;;;;;6139769;23;20431;-90
2021/12/07 12:28:55;;;;;;;4.87;1.43;;;8.40;92.30;;;;;;6119848;23;20475;-88
2021/12/07 12:31:46;;;;;;;3.97;2.30;;;8.40;92.60;;;;;;6133706;23;20898;-87
2021/12/07 12:34:21;;;;;;;3.60;2.00;;;8.40;92.90;;;;;;6157460;23;20443;-87
2021/12/07 12:37:39;;;;;;;6.37;1.90;;;8.40;93.30;;;;;;6132994;23;20478;-85
2021/12/07 12:40:23;;;;;;;4.27;2.10;;;8.40;92.90;;;;;;6128584;23;20395;-88
2021/12/07 12:42:54;;;;;;;4.00;1.73;;;8.30;92.30;;;;;;6129906;23;20387;-87
2021/12/07 12:45:28;;;;;;;3.53;1.70;;;8.20;92.20;;;;;;6131057;23;21402;-86
2021/12/07 12:48:10;;;;;;;4.53;1.60;;;8.30;92.80;;;;;;6130556;23;20411;-87
2021/12/07 12:50:43;;;;;;;3.20;1.80;;;8.30;92.80;;;;;;6131688;23;20425;-87
2021/12/07 12:53:23;;;;;;;2.77;1.60;;;8.20;92.90;;;;;;6140816;23;20420;-88
2021/12/07 12:56:13;;;;;;;3.27;1.50;;;8.20;93.30;;;;;;6142141;23;20425;-89
2021/12/07 12:58:49;;;;;;;6.40;2.00;;;8.10;93.40;;;;;;6137446;23;20451;-88
2021/12/07 13:01:22;;;;;;;3.17;1.60;;;8.20;93.80;;;;;;6137130;23;20414;-89
2021/12/07 13:04:00;;;;;;;2.37;1.77;;;8.10;93.30;;;;;;6141056;23;20498;-89
2021/12/07 13:06:36;;;;;;;2.60;1.40;;;8.00;93.40;;;;;;6144480;23;20441;-88
2021/12/07 13:09:21;;;;;;;8.10;1.87;;;8.10;93.00;;;;;;6145068;23;20426;-86
2021/12/07 13:12:00;;;;;;;5.20;1.60;;;8.00;93.10;;;;;;6135500;23;20480;-89
2021/12/07 13:14:49;;;;;;;3.07;1.40;;;7.90;93.60;;;;;;6137221;23;20438;-88
2021/12/07 13:17:20;;;;;;;2.30;1.50;;;8.10;93.40;;;;;;6136800;23;20541;-87
2021/12/07 13:20:16;;;;;;;5.50;2.07;;;7.90;93.10;;;;;;6123216;23;20414;-86
2021/12/07 13:23:04;;;;;;;4.17;1.73;;;7.90;93.40;;;;;;6120794;23;20425;-86
2021/12/07 13:25:48;;;;;;;4.53;1.33;;;7.90;93.20;;;;;;6120443;23;20406;-87
2021/12/07 13:28:27;;;;;;;4.93;1.63;;;8.00;93.60;;;;;;6145891;23;20743;-86
2021/12/07 13:31:11;;;;;;;3.80;1.70;;;8.00;93.50;;;;;;6131065;23;20406;-86
2021/12/07 13:34:04;;;;;;;4.93;1.80;;;7.90;93.30;;;;;;6082327;23;20409;-84
2021/12/07 13:37:14;;;;;;;3.90;1.70;;;7.90;93.40;;;;;;6135015;23;20418;-87
2021/12/07 13:40:19;;;;;;;2.83;1.87;;;7.80;93.70;;;;;;6138121;23;20433;-85
2021/12/07 13:43:06;;;;;;;6.13;1.17;;;7.70;94.20;;;;;;6131151;23;20424;-85
2021/12/07 13:51:00;;;;;;;;;;;;;;;;;;;;;
2021/12/07 13:54:06;;;;;;;;;;;;;;;;;;;;;
2021/12/07 13:57:46;;;;;;;3.60;1.80;;;7.70;94.40;;;;;;5927233;24;20554;-89
2021/12/07 14:04:13;;;;;;;6.73;1.70;;;7.60;94.30;;;;;;5984377;24;21031;-86
2021/12/07 14:07:17;;;;;;;2.80;1.30;;;7.60;94.60;;;;;;5980123;24;20439;-88
2021/12/07 14:10:38;;;;;;;2.60;1.43;;;7.70;94.20;;;;;;5999147;23;20520;-86
2021/12/07 14:13:08;;;;;;;3.40;1.97;;;7.60;94.40;;;;;;6018153;23;20503;-86
2021/12/07 14:15:50;;;;;;;2.60;1.60;;;7.60;93.90;;;;;;6019577;23;20496;-87
2021/12/07 14:18:27;;;;;;;2.13;1.50;;;7.50;94.20;;;;;;6012471;23;20449;-84
2021/12/07 14:21:02;;;;;;;4.23;1.33;;;7.50;94.30;;;;;;6005287;23;20448;-87
2021/12/07 14:24:03;;;;;;;4.67;1.63;;;7.50;94.30;;;;;;6013846;23;20493;-88
2021/12/07 14:26:36;;;;;;;5.60;1.83;;;7.50;94.30;;;;;;6010967;23;20421;-87
2021/12/07 14:29:17;;;;;;;4.03;1.50;;;7.50;94.30;;;;;;6119327;23;20853;-87
2021/12/07 14:32:09;;;;;;;3.00;1.67;;;7.60;94.40;;;;;;6138899;23;20540;-88
2021/12/07 14:34:51;;;;;;;3.90;1.50;;;7.50;94.40;;;;;;6134650;23;20717;-86
2021/12/07 14:37:21;;;;;;;2.30;1.37;;;7.60;94.30;;;;;;6133793;23;20471;-88
2021/12/07 14:40:23;;;;;;;4.60;1.43;;;7.60;94.20;;;;;;6131956;23;20412;-87
2021/12/07 14:43:30;;;;;;;6.80;1.97;;;7.50;94.10;;;;;;6135426;23;20494;-85
2021/12/07 14:46:40;;;;;;;2.07;1.80;;;7.50;94.70;;;;;;6125346;23;20392;-87
2021/12/07 14:49:26;;;;;;;3.77;2.10;;;7.50;94.70;;;;;;6129492;23;20437;-85
2021/12/07 14:51:56;;;;;;;3.60;1.70;;;7.40;95.30;;;;;;6131348;23;20512;-85
2021/12/07 14:54:27;;;;;;;3.97;1.77;;;7.40;95.10;;;;;;6137588;23;20461;-86
2021/12/07 14:56:57;;;;;;;4.93;2.00;;;7.60;94.90;;;;;;6142560;23;20399;-88
2021/12/07 14:59:35;;;;;;;3.17;1.33;;;7.40;95.00;;;;;;6149480;23;20407;-86
2021/12/07 15:02:11;;;;;;;6.57;1.83;;;7.30;95.20;;;;;;6148251;23;20409;-84
2021/12/07 15:04:52;;;;;;;4.50;1.47;;;7.40;94.80;;;;;;6143183;23;20413;-85
2021/12/07 15:07:20;;;;;;;6.47;1.90;;;7.30;94.70;;;;;;6108760;23;20409;-87
2021/12/07 15:09:51;;;;;;;2.33;1.77;;;7.20;95.00;;;;;;6143737;23;20402;-88
2021/12/07 15:12:26;;;;;;;4.37;1.63;;;7.30;95.00;;;;;;6148847;23;20417;-87
2021/12/07 15:15:12;;;;;;;6.00;1.93;;;7.30;95.20;;;;;;6149946;23;20481;-88
2021/12/07 15:17:40;;;;;;;3.13;1.73;;;7.10;95.40;;;;;;6135520;23;20458;-87
2021/12/07 15:20:17;;;;;;;6.67;1.90;;;7.10;95.80;;;;;;6134808;23;20417;-85
2021/12/07 15:23:00;;;;;;;2.97;1.30;;;7.20;95.50;;;;;;6136571;23;20487;-87
2021/12/07 15:25:28;;;;;;;3.20;1.20;;;7.10;95.40;;;;;;6133622;23;20428;-85
2021/12/07 15:27:56;;;;;;;4.33;1.93;;;7.10;95.40;;;;;;6133579;23;20524;-85
2021/12/07 15:30:26;;;;;;;3.50;1.80;;;7.10;95.60;;;;;;6132633;23;20421;-87
2021/12/07 15:33:07;;;;;;;6.83;2.37;;;7.10;95.60;;;;;;6136854;23;20418;-87
2021/12/07 15:35:36;;;;;;;3.80;2.20;;;7.00;95.80;;;;;;6128366;23;20423;-85
2021/12/07 15:38:07;;;;;;;5.93;1.83;;;7.10;95.80;;;;;;6135977;23;20450;-84
2021/12/07 15:41:31;;;;;;;3.20;1.70;;;7.00;95.80;;;;;;6162776;23;20391;-85
2021/12/07 15:44:11;;;;;;;4.20;1.70;;;7.00;95.70;;;;;;6118912;23;21227;-87
2021/12/07 15:46:52;;;;;;;3.60;1.77;;;7.00;96.10;;;;;;6137100;23;20421;-86
2021/12/07 15:49:41;;;;;;;7.40;1.80;;;7.10;96.10;;;;;;6137785;23;20417;-86
2021/12/07 15:52:13;;;;;;;4.00;1.93;;;7.00;95.90;;;;;;6133906;23;20423;-86
2021/12/07 15:55:05;;;;;;;3.83;1.70;;;6.90;96.10;;;;;;6138914;23;20683;-86
2021/12/07 15:58:46;;;;;;;3.83;1.70;;;6.90;96.20;;;;;;6134927;23;20483;-85
2021/12/07 16:01:13;;;;;;;3.10;1.70;;;6.90;96.40;;;;;;6125085;23;20501;-88
2021/12/07 16:03:48;;;;;;;3.80;1.97;;;7.00;96.20;;;;;;6132028;23;20436;-83
2021/12/07 16:06:22;;;;;;;3.47;1.97;;;6.80;96.50;;;;;;6131028;23;20412;-85
2021/12/07 16:08:57;;;;;;;4.83;1.80;;;6.80;96.80;;;;;;6158217;23;20427;-87
2021/12/07 16:11:49;;;;;;;3.80;1.77;;;6.70;96.80;;;;;;6136949;23;20371;-86
2021/12/07 16:14:29;;;;;;;4.30;1.90;;;6.90;97.00;;;;;;6134373;23;20440;-85